createdAt,value
2022-12-06T00:01:32.561Z,8.30
2022-12-06T00:04:02.860Z,8.20
2022-12-06T00:06:31.744Z,8.20
2022-12-06T00:09:00.373Z,8.20
2022-12-06T00:11:31.083Z,8.20
2022-12-06T00:14:04.789Z,8.20
2022-12-06T00:16:34.171Z,8.20
2022-12-06T00:19:02.586Z,8.10
2022-12-06T00:21:32.457Z,8.10
2022-12-06T00:24:02.758Z,8.10
2022-12-06T00:26:31.222Z,8.00
2022-12-06T00:29:00.722Z,7.90
2022-12-06T00:31:30.351Z,7.90
2022-12-06T00:33:58.398Z,7.80
2022-12-06T00:36:28.817Z,7.80
2022-12-06T00:38:59.022Z,7.80
2022-12-06T00:41:26.548Z,7.70
2022-12-06T00:43:54.630Z,7.70
2022-12-06T00:46:30.403Z,7.70
2022-12-06T00:49:00.089Z,7.70
2022-12-06T00:51:30.197Z,7.70
2022-12-06T00:53:59.084Z,7.70
2022-12-06T00:56:27.435Z,7.70
2022-12-06T00:58:55.408Z,7.70
2022-12-06T01:01:25.622Z,7.70
2022-12-06T01:03:56.383Z,7.70
2022-12-06T01:06:28.311Z,7.60
2022-12-06T01:08:57.421Z,7.60
2022-12-06T01:11:26.045Z,7.60
2022-12-06T01:13:54.265Z,7.60
2022-12-06T01:16:28.554Z,7.60
2022-12-06T01:19:04.580Z,7.70
2022-12-06T01:21:32.073Z,7.60
2022-12-06T01:23:59.402Z,7.60
2022-12-06T01:26:32.184Z,7.70
2022-12-06T01:29:00.711Z,7.70
2022-12-06T01:31:35.417Z,7.70
2022-12-06T01:34:06.144Z,7.70
2022-12-06T01:36:33.776Z,7.70
2022-12-06T01:39:06.873Z,7.70
2022-12-06T01:41:34.510Z,7.70
2022-12-06T01:44:01.877Z,7.70
2022-12-06T01:46:33.757Z,7.70
2022-12-06T01:49:16.016Z,7.70
2022-12-06T01:51:56.857Z,7.70
2022-12-06T01:54:25.807Z,7.70
2022-12-06T01:56:56.024Z,7.70
2022-12-06T01:59:24.733Z,7.70
2022-12-06T02:01:52.690Z,7.70
2022-12-06T02:04:20.638Z,7.70
2022-12-06T02:06:48.439Z,7.80
2022-12-06T02:09:16.877Z,7.70
2022-12-06T02:11:44.416Z,7.80
2022-12-06T02:14:17.371Z,7.80
2022-12-06T02:17:06.706Z,7.80
2022-12-06T02:19:55.490Z,7.80
2022-12-06T02:22:50.312Z,7.70
2022-12-06T02:25:53.080Z,7.70
2022-12-06T02:28:28.176Z,7.70
2022-12-06T02:31:16.283Z,7.60
2022-12-06T02:34:14.712Z,7.60
2022-12-06T02:37:04.041Z,7.60
2022-12-06T02:39:39.266Z,7.50
2022-12-06T02:42:13.604Z,7.50
2022-12-06T02:45:08.826Z,7.50
2022-12-06T02:47:38.737Z,7.50
2022-12-06T02:50:14.015Z,7.50
2022-12-06T02:52:45.074Z,7.40
2022-12-06T02:55:14.095Z,7.40
2022-12-06T02:57:44.884Z,7.40
2022-12-06T03:00:33.038Z,7.40
2022-12-06T03:03:19.111Z,7.40
2022-12-06T03:06:03.711Z,7.40
2022-12-06T03:08:56.213Z,7.40
2022-12-06T03:11:27.146Z,7.40
2022-12-06T03:13:54.359Z,7.40
2022-12-06T03:16:35.777Z,7.30
2022-12-06T03:19:13.527Z,7.30
2022-12-06T03:21:46.781Z,7.30
2022-12-06T03:24:16.056Z,7.40
2022-12-06T03:26:47.956Z,7.40
2022-12-06T03:29:17.774Z,7.40
2022-12-06T03:31:47.161Z,7.40
2022-12-06T03:34:22.411Z,7.40
2022-12-06T03:36:52.053Z,7.40
2022-12-06T03:39:49.032Z,7.40
2022-12-06T03:42:18.082Z,7.40
2022-12-06T03:44:46.077Z,7.40
2022-12-06T03:47:28.577Z,7.50
2022-12-06T03:50:07.878Z,7.50
2022-12-06T03:52:35.310Z,7.50
2022-12-06T03:55:02.917Z,7.50
2022-12-06T03:57:30.239Z,7.50
2022-12-06T03:59:57.779Z,7.50
2022-12-06T04:02:25.285Z,7.50
2022-12-06T04:04:52.632Z,7.50
2022-12-06T04:07:21.456Z,7.50
2022-12-06T04:10:03.752Z,7.50
2022-12-06T04:12:51.603Z,7.50
2022-12-06T04:15:21.185Z,7.40
2022-12-06T04:18:07.318Z,7.40
2022-12-06T04:20:53.318Z,7.30
2022-12-06T04:23:21.205Z,7.30
2022-12-06T04:25:48.840Z,7.20
2022-12-06T04:28:34.539Z,7.20
2022-12-06T04:31:22.249Z,7.20
2022-12-06T04:34:09.533Z,7.10
2022-12-06T04:36:57.358Z,7.00
2022-12-06T04:39:25.108Z,7.00
2022-12-06T04:42:10.947Z,6.90
2022-12-06T04:44:38.387Z,6.90
2022-12-06T04:47:06.246Z,6.90
2022-12-06T04:49:34.819Z,6.80
2022-12-06T04:52:03.246Z,6.80
2022-12-06T04:54:30.881Z,6.80
2022-12-06T04:56:59.203Z,6.80
2022-12-06T04:59:27.480Z,6.80
2022-12-06T05:01:55.680Z,6.80
2022-12-06T05:04:23.452Z,6.80
2022-12-06T05:06:50.804Z,6.80
2022-12-06T05:09:18.250Z,6.80
2022-12-06T05:11:45.543Z,6.90
2022-12-06T05:14:12.818Z,6.80
2022-12-06T05:16:40.259Z,6.90
2022-12-06T05:19:08.111Z,6.90
2022-12-06T05:21:35.553Z,6.90
2022-12-06T05:24:02.814Z,6.90
2022-12-06T05:26:30.301Z,6.90
2022-12-06T05:28:58.319Z,6.90
2022-12-06T05:31:26.320Z,6.80
2022-12-06T05:33:54.079Z,6.80
2022-12-06T05:36:24.826Z,6.80
2022-12-06T05:38:53.385Z,6.70
2022-12-06T05:41:22.516Z,6.70
2022-12-06T05:43:49.974Z,6.60
2022-12-06T05:46:18.162Z,6.60
2022-12-06T05:48:45.612Z,6.60
2022-12-06T05:51:13.469Z,6.60
2022-12-06T05:53:41.511Z,6.60
2022-12-06T05:56:11.709Z,6.60
2022-12-06T05:58:39.808Z,6.60
2022-12-06T06:01:08.072Z,6.70
2022-12-06T06:03:36.076Z,6.70
2022-12-06T06:06:03.980Z,6.70
2022-12-06T06:08:31.980Z,6.70
2022-12-06T06:11:00.278Z,6.80
2022-12-06T06:13:27.611Z,6.80
2022-12-06T06:15:55.123Z,6.80
2022-12-06T06:18:22.860Z,6.90
2022-12-06T06:20:57.092Z,6.80
2022-12-06T06:23:25.011Z,6.80
2022-12-06T06:25:52.944Z,6.80
2022-12-06T06:28:20.464Z,6.80
2022-12-06T06:30:47.777Z,6.80
2022-12-06T06:33:16.052Z,6.80
2022-12-06T06:35:43.897Z,6.80
2022-12-06T06:38:11.254Z,6.70
2022-12-06T06:40:38.556Z,6.70
2022-12-06T06:43:21.116Z,6.70
2022-12-06T06:46:04.319Z,6.60
2022-12-06T06:48:34.634Z,6.60
2022-12-06T06:51:13.255Z,6.60
2022-12-06T06:53:40.709Z,6.50
2022-12-06T06:56:08.481Z,6.50
2022-12-06T06:58:35.975Z,6.50
2022-12-06T07:01:06.016Z,6.50
2022-12-06T07:03:33.428Z,6.40
2022-12-06T07:06:09.163Z,6.40
2022-12-06T07:08:36.984Z,6.40
2022-12-06T07:11:04.549Z,6.40
2022-12-06T07:13:32.712Z,6.40
2022-12-06T07:16:02.837Z,6.30
2022-12-06T07:18:30.202Z,6.30
2022-12-06T07:21:04.153Z,6.30
2022-12-06T07:23:33.606Z,6.30
2022-12-06T07:26:04.986Z,6.30
2022-12-06T07:28:35.104Z,6.30
2022-12-06T07:31:13.432Z,6.20
2022-12-06T07:33:42.371Z,6.20
2022-12-06T07:36:12.829Z,6.20
2022-12-06T07:38:42.916Z,6.20
2022-12-06T07:41:33.210Z,6.10
2022-12-06T07:44:19.750Z,6.10
2022-12-06T07:46:47.904Z,6.10
2022-12-06T07:49:17.140Z,6.10
2022-12-06T07:51:45.985Z,6.10
2022-12-06T07:54:13.965Z,6.10
2022-12-06T07:56:42.089Z,6.10
2022-12-06T07:59:10.200Z,6.20
2022-12-06T08:01:37.616Z,6.20
2022-12-06T08:04:06.280Z,6.20
2022-12-06T08:06:34.241Z,6.20
2022-12-06T08:09:01.741Z,6.20
2022-12-06T08:11:29.474Z,6.20
2022-12-06T08:13:56.849Z,6.20
2022-12-06T08:16:24.416Z,6.20
2022-12-06T08:18:52.853Z,6.20
2022-12-06T08:21:20.142Z,6.20
2022-12-06T08:23:47.576Z,6.20
2022-12-06T08:26:16.180Z,6.20
2022-12-06T08:28:43.712Z,6.30
2022-12-06T08:31:15.011Z,6.30
2022-12-06T08:33:42.443Z,6.30
2022-12-06T08:36:12.141Z,6.30
2022-12-06T08:38:40.300Z,6.40
2022-12-06T08:41:28.685Z,6.40
2022-12-06T08:43:56.952Z,6.50
2022-12-06T08:46:25.776Z,6.50
2022-12-06T08:48:53.316Z,6.60
2022-12-06T08:51:20.690Z,6.60
2022-12-06T08:53:48.161Z,6.60
2022-12-06T08:56:15.903Z,6.60
2022-12-06T08:58:43.441Z,6.60
2022-12-06T09:01:34.094Z,6.60
2022-12-06T09:04:07.349Z,6.70
2022-12-06T09:06:34.955Z,6.70
2022-12-06T09:09:02.299Z,6.70
2022-12-06T09:11:29.564Z,6.80
2022-12-06T09:13:56.964Z,6.80
2022-12-06T09:16:25.374Z,6.90
2022-12-06T09:18:53.140Z,6.90
2022-12-06T09:21:23.345Z,7.00
2022-12-06T09:23:51.152Z,7.00
2022-12-06T09:26:18.477Z,7.10
2022-12-06T09:28:50.796Z,7.10
2022-12-06T09:31:19.456Z,7.20
2022-12-06T09:33:47.379Z,7.20
2022-12-06T09:36:29.443Z,7.30
2022-12-06T09:38:56.896Z,7.30
2022-12-06T09:41:49.783Z,7.30
2022-12-06T09:44:44.901Z,7.40
2022-12-06T09:47:27.439Z,7.40
2022-12-06T09:50:26.912Z,7.40
2022-12-06T09:53:36.202Z,7.40
2022-12-06T09:56:24.569Z,7.40
2022-12-06T09:59:00.527Z,7.50
2022-12-06T10:01:46.170Z,7.50
2022-12-06T10:04:32.157Z,7.60
2022-12-06T10:07:25.397Z,7.60
2022-12-06T10:09:55.487Z,7.60
2022-12-06T10:12:37.606Z,7.70
2022-12-06T10:15:22.330Z,7.70
2022-12-06T10:18:24.846Z,7.80
2022-12-06T10:20:52.142Z,7.90
2022-12-06T10:23:37.889Z,7.90
2022-12-06T10:26:15.466Z,8.00
2022-12-06T10:28:54.851Z,8.00
2022-12-06T10:31:33.615Z,8.10
2022-12-06T10:34:14.499Z,8.10
2022-12-06T10:36:53.395Z,8.20
2022-12-06T10:39:28.512Z,8.20
2022-12-06T10:42:04.932Z,8.30
2022-12-06T10:44:41.436Z,8.40
2022-12-06T10:47:21.850Z,8.50
2022-12-06T10:50:04.352Z,8.60
2022-12-06T10:52:57.212Z,8.80
2022-12-06T10:55:35.772Z,8.90
2022-12-06T10:58:24.929Z,8.90
2022-12-06T11:01:04.065Z,9.00
2022-12-06T11:03:41.507Z,9.10
2022-12-06T11:06:12.031Z,9.10
2022-12-06T11:08:42.003Z,9.20
2022-12-06T11:11:25.478Z,9.20
2022-12-06T11:14:31.201Z,9.30
2022-12-06T11:17:05.443Z,9.30
2022-12-06T11:19:35.013Z,9.40
2022-12-06T11:22:33.670Z,9.40
2022-12-06T11:25:17.188Z,9.50
2022-12-06T11:27:53.246Z,9.60
2022-12-06T11:30:21.430Z,9.70
2022-12-06T11:32:53.017Z,9.80
2022-12-06T11:35:24.213Z,9.80
2022-12-06T11:37:56.570Z,9.90
2022-12-06T11:40:28.843Z,10.00
2022-12-06T11:42:59.129Z,10.00
2022-12-06T11:45:30.158Z,10.10
2022-12-06T11:47:59.658Z,10.10
2022-12-06T11:50:30.200Z,10.10
2022-12-06T11:52:59.470Z,10.20
2022-12-06T11:55:35.597Z,10.20
2022-12-06T11:58:09.729Z,10.20
2022-12-06T12:00:38.061Z,10.20
2022-12-06T12:03:19.155Z,10.30
2022-12-06T12:05:46.812Z,10.30
2022-12-06T12:08:19.470Z,10.40
2022-12-06T12:10:57.883Z,10.40
2022-12-06T12:13:44.390Z,10.40
2022-12-06T12:16:21.167Z,10.40
2022-12-06T12:19:27.525Z,10.50
2022-12-06T12:21:57.719Z,10.50
2022-12-06T12:27:41.583Z,10.60
2022-12-06T12:30:39.037Z,10.60
2022-12-06T12:33:06.802Z,10.60
2022-12-06T12:35:55.616Z,10.60
2022-12-06T12:38:29.085Z,10.60
2022-12-06T12:41:02.781Z,10.60
2022-12-06T12:43:35.136Z,10.60
2022-12-06T12:46:07.202Z,10.70
2022-12-06T12:48:36.431Z,10.70
2022-12-06T12:51:25.623Z,10.70
2022-12-06T12:54:22.412Z,10.70
2022-12-06T12:56:50.531Z,10.60
2022-12-06T12:59:21.049Z,10.60
2022-12-06T13:02:15.944Z,10.60
2022-12-06T13:04:48.778Z,10.60
2022-12-06T13:07:19.593Z,10.60
2022-12-06T13:10:26.121Z,10.60
2022-12-06T13:13:16.648Z,10.60
2022-12-06T13:15:56.150Z,10.50
2022-12-06T13:18:52.968Z,10.50
2022-12-06T13:21:27.980Z,10.50
2022-12-06T13:24:05.957Z,10.50
2022-12-06T13:26:39.337Z,10.40
2022-12-06T13:29:37.565Z,10.40
2022-12-06T13:32:12.121Z,10.40
2022-12-06T13:35:03.328Z,10.40
2022-12-06T13:37:43.685Z,10.40
2022-12-06T13:40:29.648Z,10.40
2022-12-06T13:42:57.003Z,10.40
2022-12-06T13:45:40.287Z,10.40
2022-12-06T13:48:25.988Z,10.40
2022-12-06T13:51:03.686Z,10.40
2022-12-06T13:53:34.334Z,10.40
2022-12-06T13:56:38.437Z,10.40
2022-12-06T13:59:11.921Z,10.40
2022-12-06T14:01:45.943Z,10.30
2022-12-06T14:09:42.637Z,10.30
2022-12-06T14:12:24.854Z,10.30
2022-12-06T14:15:00.591Z,10.30
2022-12-06T14:18:04.430Z,10.30
2022-12-06T14:20:33.724Z,10.30
2022-12-06T14:23:01.143Z,10.30
2022-12-06T14:25:30.658Z,10.30
2022-12-06T14:28:10.593Z,10.20
2022-12-06T14:30:39.393Z,10.20
2022-12-06T14:33:19.916Z,10.20
2022-12-06T14:35:52.927Z,10.20
2022-12-06T14:38:30.555Z,10.20
2022-12-06T14:41:16.941Z,10.20
2022-12-06T14:43:47.725Z,10.10
2022-12-06T14:46:17.794Z,10.10
2022-12-06T14:49:04.640Z,10.10
2022-12-06T14:51:41.127Z,10.10
2022-12-06T14:54:50.389Z,10.10
2022-12-06T14:57:28.131Z,10.10
2022-12-06T15:00:18.476Z,10.00
2022-12-06T15:03:23.089Z,10.00
2022-12-06T15:06:09.446Z,10.00
2022-12-06T15:08:42.203Z,10.00
2022-12-06T15:11:12.382Z,10.00
2022-12-06T15:13:40.550Z,10.00
2022-12-06T15:16:07.991Z,9.90
2022-12-06T15:18:41.155Z,9.90
2022-12-06T15:21:17.855Z,9.90
2022-12-06T15:23:53.474Z,9.90
2022-12-06T15:26:22.341Z,9.90
2022-12-06T15:28:50.816Z,9.80
2022-12-06T15:31:30.190Z,9.80
2022-12-06T15:33:57.591Z,9.70
2022-12-06T15:36:31.158Z,9.70
2022-12-06T15:38:58.744Z,9.60
2022-12-06T15:41:28.316Z,9.60
2022-12-06T15:43:57.696Z,9.60
2022-12-06T15:46:28.304Z,9.50
2022-12-06T15:48:56.442Z,9.50
2022-12-06T15:51:26.630Z,9.40
2022-12-06T15:53:56.303Z,9.40
2022-12-06T15:56:25.659Z,9.40
2022-12-06T15:58:53.004Z,9.40
2022-12-06T16:01:22.400Z,9.30
2022-12-06T16:03:51.479Z,9.30
2022-12-06T16:06:20.878Z,9.30
2022-12-06T16:08:49.028Z,9.30
2022-12-06T16:11:19.139Z,9.20
2022-12-06T16:13:46.802Z,9.20
2022-12-06T16:16:16.550Z,9.20
2022-12-06T16:18:44.150Z,9.10
2022-12-06T16:21:24.883Z,9.10
2022-12-06T16:24:17.983Z,9.10
2022-12-06T16:26:46.280Z,9.10
2022-12-06T16:29:21.141Z,9.00
2022-12-06T16:31:48.916Z,9.00
2022-12-06T16:34:16.630Z,9.00
2022-12-06T16:37:05.092Z,8.90
2022-12-06T16:39:34.566Z,8.90
2022-12-06T16:42:03.539Z,8.90
2022-12-06T16:44:31.000Z,8.90
2022-12-06T16:46:58.806Z,8.90
2022-12-06T16:49:47.791Z,8.90
2022-12-06T16:52:17.036Z,8.80
2022-12-06T16:54:44.956Z,8.80
2022-12-06T16:57:13.185Z,8.80
2022-12-06T16:59:42.676Z,8.70
2022-12-06T17:02:36.684Z,8.70
2022-12-06T17:05:06.961Z,8.70
2022-12-06T17:07:36.148Z,8.60
2022-12-06T17:10:04.044Z,8.60
2022-12-06T17:12:31.419Z,8.60
2022-12-06T17:15:00.326Z,8.60
2022-12-06T17:17:29.619Z,8.60
2022-12-06T17:19:57.065Z,8.60
2022-12-06T17:22:25.008Z,8.60
2022-12-06T17:24:52.318Z,8.50
2022-12-06T17:27:19.842Z,8.50
2022-12-06T17:29:47.312Z,8.50
2022-12-06T17:32:14.864Z,8.50
2022-12-06T17:34:42.328Z,8.50
2022-12-06T17:37:10.316Z,8.50
2022-12-06T17:39:37.821Z,8.50
2022-12-06T17:42:38.054Z,8.50
2022-12-06T17:45:06.129Z,8.50
2022-12-06T17:47:34.129Z,8.50
2022-12-06T17:50:01.963Z,8.50
2022-12-06T17:52:29.874Z,8.50
2022-12-06T17:54:57.258Z,8.50
2022-12-06T17:57:24.762Z,8.50
2022-12-06T17:59:52.062Z,8.50
2022-12-06T18:02:24.358Z,8.50
2022-12-06T18:04:52.903Z,8.50
2022-12-06T18:07:20.687Z,8.50
2022-12-06T18:09:48.209Z,8.60
2022-12-06T18:12:16.660Z,8.60
2022-12-06T18:14:45.202Z,8.60
2022-12-06T18:17:13.070Z,8.60
2022-12-06T18:19:41.098Z,8.60
2022-12-06T18:22:08.497Z,8.60
2022-12-06T18:24:36.281Z,8.60
2022-12-06T18:27:07.047Z,8.60
2022-12-06T18:29:35.100Z,8.60
2022-12-06T18:32:03.333Z,8.60
2022-12-06T18:34:31.060Z,8.60
2022-12-06T18:36:58.576Z,8.60
2022-12-06T18:39:26.172Z,8.60
2022-12-06T18:41:54.939Z,8.60
2022-12-06T18:44:22.977Z,8.60
2022-12-06T18:46:50.535Z,8.60
2022-12-06T18:49:18.621Z,8.60
2022-12-06T18:51:46.042Z,8.60
2022-12-06T18:54:16.432Z,8.60
2022-12-06T18:56:43.837Z,8.60
2022-12-06T18:59:12.352Z,8.60
2022-12-06T19:01:41.428Z,8.50
2022-12-06T19:04:13.363Z,8.50
2022-12-06T19:06:40.830Z,8.50
2022-12-06T19:09:10.612Z,8.50
2022-12-06T19:11:39.943Z,8.50
2022-12-06T19:14:07.944Z,8.50
2022-12-06T19:16:39.485Z,8.50
2022-12-06T19:19:15.781Z,8.50
2022-12-06T19:21:45.204Z,8.50
2022-12-06T19:24:15.726Z,8.50
2022-12-06T19:26:44.001Z,8.50
2022-12-06T19:29:11.423Z,8.50
2022-12-06T19:31:38.858Z,8.50
2022-12-06T19:34:06.232Z,8.50
2022-12-06T19:36:33.921Z,8.50
2022-12-06T19:39:04.654Z,8.50
2022-12-06T19:41:32.761Z,8.50
2022-12-06T19:44:15.637Z,8.50
2022-12-06T19:46:43.949Z,8.40
2022-12-06T19:49:13.468Z,8.40
2022-12-06T19:51:43.828Z,8.30
2022-12-06T19:54:14.339Z,8.30
2022-12-06T19:56:42.121Z,8.30
2022-12-06T19:59:12.404Z,8.20
2022-12-06T20:01:42.679Z,8.20
2022-12-06T20:04:18.295Z,8.20
2022-12-06T20:06:50.227Z,8.20
2022-12-06T20:09:19.073Z,8.10
2022-12-06T20:12:06.151Z,8.10
2022-12-06T20:14:38.291Z,8.10
2022-12-06T20:17:10.308Z,8.00
2022-12-06T20:19:39.116Z,8.00
2022-12-06T20:22:06.614Z,8.00
2022-12-06T20:24:34.038Z,7.90
2022-12-06T20:27:01.624Z,8.00
2022-12-06T20:29:30.299Z,7.90
2022-12-06T20:31:59.536Z,7.90
2022-12-06T20:34:34.351Z,7.90
2022-12-06T20:37:04.047Z,7.90
2022-12-06T20:39:41.024Z,7.80
2022-12-06T20:42:08.351Z,7.80
2022-12-06T20:44:35.803Z,7.80
2022-12-06T20:47:03.980Z,7.80
2022-12-06T20:49:31.640Z,7.80
2022-12-06T20:52:02.361Z,7.80
2022-12-06T20:54:31.210Z,7.70
2022-12-06T20:56:59.727Z,7.70
2022-12-06T20:59:30.062Z,7.70
2022-12-06T21:01:57.932Z,7.70
2022-12-06T21:04:26.860Z,7.70
2022-12-06T21:06:54.884Z,7.70
2022-12-06T21:09:23.007Z,7.70
2022-12-06T21:11:50.318Z,7.70
2022-12-06T21:14:18.397Z,7.60
2022-12-06T21:16:45.818Z,7.70
2022-12-06T21:19:16.728Z,7.60
2022-12-06T21:21:47.651Z,7.60
2022-12-06T21:24:20.510Z,7.50
2022-12-06T21:26:48.486Z,7.50
2022-12-06T21:29:28.402Z,7.50
2022-12-06T21:31:57.852Z,7.50
2022-12-06T21:34:25.077Z,7.50
2022-12-06T21:36:52.423Z,7.40
2022-12-06T21:39:19.880Z,7.40
2022-12-06T21:41:47.331Z,7.40
2022-12-06T21:44:14.619Z,7.40
2022-12-06T21:46:42.013Z,7.40
2022-12-06T21:49:10.902Z,7.40
2022-12-06T21:51:38.273Z,7.40
2022-12-06T21:54:05.753Z,7.30
2022-12-06T21:56:34.994Z,7.30
2022-12-06T21:59:02.596Z,7.30
2022-12-06T22:01:31.529Z,7.30
2022-12-06T22:04:02.294Z,7.30
2022-12-06T22:06:29.978Z,7.30
2022-12-06T22:09:06.354Z,7.20
2022-12-06T22:11:34.786Z,7.20
2022-12-06T22:14:02.717Z,7.20
2022-12-06T22:16:30.251Z,7.20
2022-12-06T22:18:58.366Z,7.20
2022-12-06T22:21:27.927Z,7.20
2022-12-06T22:23:58.210Z,7.30
2022-12-06T22:26:28.503Z,7.30
2022-12-06T22:28:56.334Z,7.40
2022-12-06T22:31:26.218Z,7.50
2022-12-06T22:33:54.432Z,7.50
2022-12-06T22:36:22.667Z,7.50
2022-12-06T22:38:52.129Z,7.50
2022-12-06T22:41:20.211Z,7.50
2022-12-06T22:43:51.779Z,7.60
2022-12-06T22:46:19.854Z,7.60
2022-12-06T22:48:47.902Z,7.60
2022-12-06T22:51:25.290Z,7.60
2022-12-06T22:53:55.873Z,7.60
2022-12-06T22:56:23.760Z,7.60
2022-12-06T22:58:55.717Z,7.60
2022-12-06T23:01:25.605Z,7.60
2022-12-06T23:03:53.781Z,7.60
2022-12-06T23:06:24.284Z,7.60
2022-12-06T23:08:52.139Z,7.50
2022-12-06T23:11:21.180Z,7.50
2022-12-06T23:13:48.769Z,7.50
2022-12-06T23:16:18.648Z,7.50
2022-12-06T23:18:46.947Z,7.50
2022-12-06T23:21:20.086Z,7.40
2022-12-06T23:23:56.153Z,7.40
2022-12-06T23:26:34.903Z,7.40
2022-12-06T23:29:02.742Z,7.50
2022-12-06T23:31:33.193Z,7.50
2022-12-06T23:34:04.132Z,7.40
2022-12-06T23:36:33.323Z,7.40
2022-12-06T23:39:00.856Z,7.50
2022-12-06T23:41:30.272Z,7.50
2022-12-06T23:43:58.772Z,7.50
2022-12-06T23:46:28.746Z,7.40
2022-12-06T23:48:57.073Z,7.40
2022-12-06T23:51:34.263Z,7.40
2022-12-06T23:54:03.312Z,7.40
2022-12-06T23:56:36.767Z,7.30
2022-12-06T23:59:06.122Z,7.30
